createdAt,value
2022-11-15T00:01:21.194Z,99439.97
2022-11-15T00:03:52.466Z,99437.50
2022-11-15T00:06:20.233Z,99443.44
2022-11-15T00:08:47.800Z,99440.81
2022-11-15T00:11:17.708Z,99430.75
2022-11-15T00:13:45.292Z,99427.25
2022-11-15T00:16:12.844Z,99424.66
2022-11-15T00:18:42.434Z,99420.91
2022-11-15T00:21:14.074Z,99428.13
2022-11-15T00:23:42.680Z,99417.00
2022-11-15T00:26:13.641Z,99413.19
2022-11-15T00:28:43.058Z,99397.72
2022-11-15T00:31:14.230Z,99415.91
2022-11-15T00:33:42.958Z,99413.00
2022-11-15T00:36:11.610Z,99422.91
2022-11-15T00:38:41.499Z,99416.09
2022-11-15T00:41:10.301Z,99416.66
2022-11-15T00:43:40.654Z,99419.81
2022-11-15T00:46:10.553Z,99422.25
2022-11-15T00:48:38.754Z,99423.28
2022-11-15T00:51:06.585Z,99422.94
2022-11-15T00:53:34.484Z,99426.25
2022-11-15T00:56:02.394Z,99417.19
2022-11-15T00:58:29.943Z,99413.06
2022-11-15T01:00:57.574Z,99406.66
2022-11-15T01:03:26.522Z,99393.78
2022-11-15T01:05:54.059Z,99408.94
2022-11-15T01:08:21.640Z,99406.81
2022-11-15T01:10:49.159Z,99403.22
2022-11-15T01:13:17.740Z,99399.88
2022-11-15T01:15:46.533Z,99407.28
2022-11-15T01:18:14.089Z,99406.03
2022-11-15T01:20:43.766Z,99405.00
2022-11-15T01:23:11.662Z,99401.59
2022-11-15T01:25:39.225Z,99407.09
2022-11-15T01:28:06.797Z,99408.66
2022-11-15T01:30:34.418Z,99401.53
2022-11-15T01:33:01.970Z,99402.53
2022-11-15T01:35:29.548Z,99390.72
2022-11-15T01:37:58.814Z,99401.84
2022-11-15T01:40:26.446Z,99390.50
2022-11-15T01:42:53.980Z,99391.38
2022-11-15T01:45:22.288Z,99386.69
2022-11-15T01:47:54.171Z,99391.38
2022-11-15T01:50:24.581Z,99387.47
2022-11-15T01:52:52.163Z,99386.25
2022-11-15T01:55:24.730Z,99373.28
2022-11-15T01:57:55.197Z,99373.84
2022-11-15T02:00:23.271Z,99373.34
2022-11-15T02:02:50.913Z,99366.88
2022-11-15T02:05:18.807Z,99380.38
2022-11-15T02:07:46.792Z,99369.75
2022-11-15T02:10:19.429Z,99372.03
2022-11-15T02:12:49.254Z,99362.28
2022-11-15T02:15:18.548Z,99362.13
2022-11-15T02:18:01.404Z,99360.63
2022-11-15T02:20:46.350Z,99355.97
2022-11-15T02:23:40.505Z,99349.28
2022-11-15T02:26:32.726Z,99348.41
2022-11-15T02:29:05.787Z,99335.50
2022-11-15T02:31:42.527Z,99339.28
2022-11-15T02:34:18.631Z,99339.22
2022-11-15T02:36:56.579Z,99337.69
2022-11-15T02:39:30.537Z,99332.66
2022-11-15T02:42:04.106Z,99332.19
2022-11-15T02:44:38.366Z,99328.53
2022-11-15T02:47:17.375Z,99316.41
2022-11-15T02:49:49.089Z,99319.31
2022-11-15T02:52:18.697Z,99326.53
2022-11-15T02:54:56.070Z,99329.47
2022-11-15T02:57:38.829Z,99323.84
2022-11-15T03:00:12.248Z,99316.78
2022-11-15T03:03:10.388Z,99310.91
2022-11-15T03:05:46.462Z,99300.81
2022-11-15T03:08:23.988Z,99300.00
2022-11-15T03:11:01.114Z,99305.09
2022-11-15T03:13:35.470Z,99305.41
2022-11-15T03:16:07.655Z,99293.94
2022-11-15T03:18:40.580Z,99298.91
2022-11-15T03:21:10.825Z,99300.88
2022-11-15T03:23:41.321Z,99297.69
2022-11-15T03:26:12.136Z,99304.94
2022-11-15T03:28:45.571Z,99297.03
2022-11-15T03:31:29.542Z,99303.56
2022-11-15T03:34:01.054Z,99308.41
2022-11-15T03:36:29.049Z,99303.53
2022-11-15T03:38:59.994Z,99308.78
2022-11-15T03:41:33.552Z,99304.16
2022-11-15T03:44:10.606Z,99306.66
2022-11-15T03:46:44.708Z,99306.72
2022-11-15T03:49:19.194Z,99306.09
2022-11-15T03:51:46.772Z,99305.38
2022-11-15T03:54:14.815Z,99305.06
2022-11-15T03:56:42.440Z,99304.84
2022-11-15T03:59:09.976Z,99304.59
2022-11-15T04:01:37.617Z,99305.59
2022-11-15T04:04:05.418Z,99314.56
2022-11-15T04:06:34.412Z,99313.00
2022-11-15T04:09:02.144Z,99312.25
2022-11-15T04:11:29.754Z,99316.16
2022-11-15T04:13:57.301Z,99315.44
2022-11-15T04:16:24.989Z,99318.91
2022-11-15T04:19:12.508Z,99309.59
2022-11-15T04:21:59.217Z,99309.88
2022-11-15T04:24:26.811Z,99303.53
2022-11-15T04:26:54.533Z,99305.81
2022-11-15T04:29:37.352Z,99305.16
2022-11-15T04:32:06.379Z,99298.38
2022-11-15T04:34:35.215Z,99301.13
2022-11-15T04:37:17.040Z,99287.97
2022-11-15T04:39:45.299Z,99294.28
2022-11-15T04:42:12.871Z,99284.41
2022-11-15T04:44:40.552Z,99290.25
2022-11-15T04:47:08.108Z,99287.63
2022-11-15T04:49:35.933Z,99284.28
2022-11-15T04:52:05.212Z,99291.28
2022-11-15T04:54:32.764Z,99285.28
2022-11-15T04:57:00.290Z,99291.63
2022-11-15T04:59:28.073Z,99282.97
2022-11-15T05:01:55.687Z,99278.88
2022-11-15T05:04:22.251Z,99284.00
2022-11-15T05:06:51.778Z,99271.13
2022-11-15T05:09:22.875Z,99269.94
2022-11-15T05:11:50.553Z,99275.94
2022-11-15T05:14:18.611Z,99276.97
2022-11-15T05:16:46.281Z,99282.31
2022-11-15T05:19:13.845Z,99284.66
2022-11-15T05:21:41.516Z,99285.06
2022-11-15T05:24:11.934Z,99285.78
2022-11-15T05:26:40.845Z,99291.34
2022-11-15T05:29:08.380Z,99284.41
2022-11-15T05:31:35.930Z,99280.59
2022-11-15T05:34:07.613Z,99284.69
2022-11-15T05:36:38.689Z,99289.38
2022-11-15T05:39:09.304Z,99275.97
2022-11-15T05:41:43.453Z,99265.38
2022-11-15T05:44:14.550Z,99261.88
2022-11-15T05:46:44.194Z,99256.06
2022-11-15T05:49:15.285Z,99253.03
2022-11-15T05:51:47.165Z,99247.09
2022-11-15T05:54:16.664Z,99248.09
2022-11-15T05:56:45.844Z,99243.72
2022-11-15T05:59:13.884Z,99244.66
2022-11-15T06:01:42.388Z,99254.72
2022-11-15T06:04:10.029Z,99259.88
2022-11-15T06:06:37.678Z,99259.25
2022-11-15T06:09:06.255Z,99263.81
2022-11-15T06:11:33.852Z,99260.53
2022-11-15T06:14:02.868Z,99261.53
2022-11-15T06:16:30.452Z,99260.56
2022-11-15T06:18:58.049Z,99262.38
2022-11-15T06:21:28.707Z,99266.13
2022-11-15T06:23:56.289Z,99253.88
2022-11-15T06:26:24.848Z,99255.16
2022-11-15T06:28:52.447Z,99259.16
2022-11-15T06:31:21.433Z,99263.66
2022-11-15T06:33:50.434Z,99261.31
2022-11-15T06:36:18.843Z,99265.28
2022-11-15T06:38:47.030Z,99256.03
2022-11-15T06:41:16.098Z,99261.41
2022-11-15T06:43:43.962Z,99260.69
2022-11-15T06:46:12.115Z,99261.28
2022-11-15T06:48:41.229Z,99266.31
2022-11-15T06:51:09.833Z,99266.47
2022-11-15T06:53:38.116Z,99268.25
2022-11-15T06:56:08.262Z,99273.41
2022-11-15T06:58:36.079Z,99275.56
2022-11-15T07:01:06.547Z,99272.09
2022-11-15T07:03:36.257Z,99265.25
2022-11-15T07:06:07.704Z,99276.22
2022-11-15T07:08:36.834Z,99268.22
2022-11-15T07:11:08.950Z,99263.66
2022-11-15T07:13:38.138Z,99257.16
2022-11-15T07:16:07.036Z,99268.34
2022-11-15T07:18:36.293Z,99256.00
2022-11-15T07:21:06.543Z,99259.69
2022-11-15T07:23:34.637Z,99256.94
2022-11-15T07:26:02.532Z,99261.47
2022-11-15T07:28:30.825Z,99258.66
2022-11-15T07:30:58.812Z,99252.81
2022-11-15T07:33:26.404Z,99255.56
2022-11-15T07:35:53.964Z,99262.81
2022-11-15T07:38:23.057Z,99263.44
2022-11-15T07:40:58.555Z,99265.44
2022-11-15T07:43:28.868Z,99265.88
2022-11-15T07:45:59.417Z,99257.59
2022-11-15T07:48:32.168Z,99265.00
2022-11-15T07:51:14.334Z,99263.91
2022-11-15T07:53:43.906Z,99266.03
2022-11-15T07:56:12.524Z,99264.19
2022-11-15T07:58:40.367Z,99267.72
2022-11-15T08:01:09.661Z,99259.88
2022-11-15T08:03:38.114Z,99265.09
2022-11-15T08:06:06.242Z,99265.56
2022-11-15T08:08:33.801Z,99272.84
2022-11-15T08:11:03.066Z,99268.28
2022-11-15T08:13:31.338Z,99267.66
2022-11-15T08:16:00.274Z,99265.94
2022-11-15T08:18:27.916Z,99261.34
2022-11-15T08:20:55.526Z,99254.66
2022-11-15T08:23:23.129Z,99259.44
2022-11-15T08:25:50.701Z,99257.06
2022-11-15T08:28:19.617Z,99249.03
2022-11-15T08:30:48.240Z,99244.63
2022-11-15T08:33:16.106Z,99245.41
2022-11-15T08:35:45.351Z,99245.00
2022-11-15T08:38:13.238Z,99245.88
2022-11-15T08:40:42.059Z,99248.13
2022-11-15T08:43:09.732Z,99243.16
2022-11-15T08:45:38.632Z,99243.47
2022-11-15T08:48:06.849Z,99250.00
2022-11-15T08:50:34.400Z,99246.09
2022-11-15T08:53:07.252Z,99249.28
2022-11-15T08:55:38.258Z,99252.19
2022-11-15T08:58:06.187Z,99254.19
2022-11-15T09:00:35.597Z,99255.09
2022-11-15T09:03:07.540Z,99257.66
2022-11-15T09:05:38.194Z,99252.09
2022-11-15T09:08:25.636Z,99251.78
2022-11-15T09:10:54.286Z,99245.97
2022-11-15T09:13:21.953Z,99245.72
2022-11-15T09:15:49.784Z,99252.44
2022-11-15T09:18:18.717Z,99250.31
2022-11-15T09:20:46.735Z,99237.69
2022-11-15T09:23:14.296Z,99245.28
2022-11-15T09:25:41.960Z,99241.88
2022-11-15T09:28:10.511Z,99244.63
2022-11-15T09:30:38.087Z,99243.09
2022-11-15T09:33:09.580Z,99243.53
2022-11-15T09:35:38.893Z,99244.88
2022-11-15T09:38:06.743Z,99247.41
2022-11-15T09:40:37.876Z,99235.66
2022-11-15T09:43:30.905Z,99245.28
2022-11-15T09:46:11.355Z,99235.94
2022-11-15T09:48:50.984Z,99233.31
2022-11-15T09:51:30.992Z,99226.25
2022-11-15T09:56:53.747Z,99238.06
2022-11-15T09:59:30.512Z,99233.69
2022-11-15T10:02:11.321Z,99228.81
2022-11-15T10:04:40.344Z,99226.56
2022-11-15T10:07:19.627Z,99228.06
2022-11-15T10:09:51.372Z,99225.44
2022-11-15T10:12:19.827Z,99212.13
2022-11-15T10:14:54.437Z,99207.66
2022-11-15T10:17:44.291Z,99199.78
2022-11-15T10:20:19.670Z,99198.78
2022-11-15T10:22:50.951Z,99197.28
2022-11-15T10:25:21.874Z,99202.38
2022-11-15T10:27:55.556Z,99198.47
2022-11-15T10:30:23.679Z,99183.06
2022-11-15T10:32:51.321Z,99185.78
2022-11-15T10:35:22.726Z,99180.41
2022-11-15T10:37:51.856Z,99173.09
2022-11-15T10:40:22.565Z,99169.94
2022-11-15T10:43:05.441Z,99168.53
2022-11-15T10:45:34.885Z,99158.09
2022-11-15T10:48:26.285Z,99154.28
2022-11-15T10:50:55.665Z,99159.22
2022-11-15T10:53:31.567Z,99142.91
2022-11-15T10:56:03.751Z,99140.88
2022-11-15T10:58:40.013Z,99134.84
2022-11-15T11:01:16.580Z,99128.75
2022-11-15T11:03:45.957Z,99128.16
2022-11-15T11:06:16.161Z,99124.03
2022-11-15T11:08:57.772Z,99116.84
2022-11-15T11:11:25.686Z,99112.81
2022-11-15T11:13:53.958Z,99109.38
2022-11-15T11:16:39.156Z,99111.53
2022-11-15T11:19:21.878Z,99111.34
2022-11-15T11:21:56.296Z,99106.25
2022-11-15T11:24:34.402Z,99103.81
2022-11-15T11:27:15.440Z,99098.50
2022-11-15T11:29:57.707Z,99098.28
2022-11-15T11:32:41.366Z,99095.09
2022-11-15T11:35:15.516Z,99093.03
2022-11-15T11:37:49.556Z,99087.53
2022-11-15T11:40:31.112Z,99070.94
2022-11-15T11:43:10.765Z,99077.53
2022-11-15T11:45:54.908Z,99079.59
2022-11-15T11:48:36.586Z,99069.19
2022-11-15T11:51:10.214Z,99059.38
2022-11-15T11:53:44.618Z,99057.13
2022-11-15T11:56:21.617Z,99052.84
2022-11-15T11:58:50.337Z,99052.22
2022-11-15T12:01:22.390Z,99040.34
2022-11-15T12:03:57.692Z,99044.03
2022-11-15T12:06:32.861Z,99037.34
2022-11-15T12:09:06.460Z,99027.94
2022-11-15T12:11:52.062Z,99029.16
2022-11-15T12:14:29.602Z,99013.81
2022-11-15T12:16:57.264Z,99012.56
2022-11-15T12:19:25.074Z,99009.31
2022-11-15T12:21:58.941Z,99001.28
2022-11-15T12:24:30.517Z,99004.97
2022-11-15T12:27:04.147Z,99003.56
2022-11-15T12:29:37.670Z,99009.91
2022-11-15T12:32:07.400Z,98999.72
2022-11-15T12:34:45.873Z,99000.09
2022-11-15T12:37:50.437Z,99006.47
2022-11-15T12:40:24.661Z,98994.19
2022-11-15T12:43:32.504Z,98990.09
2022-11-15T12:46:06.292Z,98983.13
2022-11-15T12:49:01.830Z,98983.75
2022-11-15T12:52:06.913Z,98974.69
2022-11-15T12:55:10.396Z,98972.81
2022-11-15T12:57:42.691Z,98978.97
2022-11-15T13:00:42.649Z,98976.56
2022-11-15T13:03:30.487Z,98968.56
2022-11-15T13:06:15.379Z,98963.19
2022-11-15T13:08:51.540Z,98962.19
2022-11-15T13:11:49.302Z,98962.00
2022-11-15T13:14:49.483Z,98955.47
2022-11-15T13:17:37.149Z,98941.69
2022-11-15T13:20:24.547Z,98942.13
2022-11-15T13:22:53.318Z,98942.72
2022-11-15T13:25:42.702Z,98942.13
2022-11-15T13:28:19.916Z,98937.00
2022-11-15T13:30:52.281Z,98930.09
2022-11-15T13:33:21.941Z,98925.56
2022-11-15T13:35:53.734Z,98926.22
2022-11-15T13:38:28.609Z,98921.94
2022-11-15T13:40:57.090Z,98914.16
2022-11-15T13:43:36.865Z,98914.56
2022-11-15T13:46:13.093Z,98911.66
2022-11-15T13:48:41.371Z,98911.69
2022-11-15T13:51:19.082Z,98908.63
2022-11-15T13:53:50.041Z,98905.72
2022-11-15T13:56:19.728Z,98898.81
2022-11-15T13:58:47.872Z,98899.06
2022-11-15T14:01:20.622Z,98886.78
2022-11-15T14:03:53.188Z,98885.59
2022-11-15T14:06:25.193Z,98881.72
2022-11-15T14:09:26.701Z,98874.13
2022-11-15T14:11:56.353Z,98866.16
2022-11-15T14:14:25.621Z,98863.50
2022-11-15T14:16:54.967Z,98858.28
2022-11-15T14:19:40.376Z,98865.19
2022-11-15T14:22:19.624Z,98851.31
2022-11-15T14:24:49.615Z,98842.53
2022-11-15T14:27:26.680Z,98845.59
2022-11-15T14:29:55.186Z,98843.56
2022-11-15T14:32:25.123Z,98836.63
2022-11-15T14:34:57.050Z,98843.16
2022-11-15T14:37:28.962Z,98838.41
2022-11-15T14:39:57.080Z,98828.88
2022-11-15T14:42:25.355Z,98827.59
2022-11-15T14:44:53.473Z,98833.50
2022-11-15T14:47:21.172Z,98826.97
2022-11-15T14:49:48.901Z,98828.78
2022-11-15T14:52:32.132Z,98825.13
2022-11-15T14:55:00.562Z,98826.59
2022-11-15T14:57:28.387Z,98823.50
2022-11-15T14:59:56.214Z,98827.78
2022-11-15T15:02:26.282Z,98826.41
2022-11-15T15:04:53.897Z,98820.66
2022-11-15T15:07:21.710Z,98814.16
2022-11-15T15:09:50.813Z,98804.28
2022-11-15T15:12:20.569Z,98811.41
2022-11-15T15:14:50.032Z,98805.88
2022-11-15T15:17:18.197Z,98810.44
2022-11-15T15:19:46.081Z,98803.03
2022-11-15T15:22:17.029Z,98797.28
2022-11-15T15:24:44.797Z,98791.81
2022-11-15T15:27:14.508Z,98788.09
2022-11-15T15:29:42.414Z,98780.63
2022-11-15T15:32:10.457Z,98794.66
2022-11-15T15:34:38.115Z,98781.19
2022-11-15T15:37:10.427Z,98784.06
2022-11-15T15:39:37.998Z,98781.22
2022-11-15T15:42:05.912Z,98780.34
2022-11-15T15:44:35.829Z,98779.00
2022-11-15T15:47:03.477Z,98781.25
2022-11-15T15:49:31.042Z,98776.31
2022-11-15T15:51:58.634Z,98781.41
2022-11-15T15:54:26.232Z,98775.78
2022-11-15T15:56:56.264Z,98772.44
2022-11-15T15:59:24.018Z,98768.84
2022-11-15T16:01:52.961Z,98766.22
2022-11-15T16:04:20.669Z,98760.59
2022-11-15T16:06:50.684Z,98753.53
2022-11-15T16:09:40.009Z,98751.88
2022-11-15T16:12:07.682Z,98730.97
2022-11-15T16:14:35.256Z,98738.53
2022-11-15T16:17:05.173Z,98733.44
2022-11-15T16:19:32.767Z,98731.06
2022-11-15T16:22:00.317Z,98727.00
2022-11-15T16:24:27.929Z,98719.03
2022-11-15T16:26:55.734Z,98714.66
2022-11-15T16:29:23.377Z,98719.84
2022-11-15T16:31:50.933Z,98720.06
2022-11-15T16:34:19.835Z,98721.50
2022-11-15T16:36:49.078Z,98705.00
2022-11-15T16:39:19.330Z,98706.38
2022-11-15T16:41:47.761Z,98710.72
2022-11-15T16:44:15.483Z,98709.22
2022-11-15T16:46:43.946Z,98698.38
2022-11-15T16:49:15.045Z,98697.16
2022-11-15T16:51:44.940Z,98686.59
2022-11-15T16:54:12.517Z,98692.03
2022-11-15T16:56:40.861Z,98692.88
2022-11-15T16:59:09.028Z,98686.66
2022-11-15T17:01:46.484Z,98692.25
2022-11-15T17:04:16.246Z,98688.78
2022-11-15T17:06:47.148Z,98688.00
2022-11-15T17:09:16.573Z,98680.50
2022-11-15T17:11:44.686Z,98676.16
2022-11-15T17:14:13.132Z,98684.38
2022-11-15T17:16:42.475Z,98679.06
2022-11-15T17:19:14.608Z,98681.13
2022-11-15T17:21:42.857Z,98670.75
2022-11-15T17:24:12.604Z,98672.16
2022-11-15T17:26:40.984Z,98674.19
2022-11-15T17:29:08.960Z,98679.47
2022-11-15T17:31:37.013Z,98676.22
2022-11-15T17:34:05.974Z,98671.72
2022-11-15T17:36:34.015Z,98677.06
2022-11-15T17:39:01.919Z,98664.81
2022-11-15T17:41:30.994Z,98665.63
2022-11-15T17:44:00.417Z,98666.25
2022-11-15T17:46:29.389Z,98670.09
2022-11-15T17:48:58.054Z,98668.44
2022-11-15T17:51:26.009Z,98656.44
2022-11-15T17:53:53.629Z,98666.41
2022-11-15T17:56:22.982Z,98647.66
2022-11-15T17:58:53.447Z,98662.13
2022-11-15T18:01:22.740Z,98651.94
2022-11-15T18:03:50.842Z,98638.25
2022-11-15T18:06:19.706Z,98652.34
2022-11-15T18:08:49.060Z,98643.59
2022-11-15T18:11:19.824Z,98647.88
2022-11-15T18:13:52.232Z,98642.94
2022-11-15T18:16:25.957Z,98642.34
2022-11-15T18:18:54.248Z,98636.03
2022-11-15T18:21:23.740Z,98629.31
2022-11-15T18:23:56.744Z,98627.69
2022-11-15T18:26:27.609Z,98628.50
2022-11-15T18:28:56.809Z,98621.94
2022-11-15T18:31:28.534Z,98616.06
2022-11-15T18:33:56.990Z,98615.00
2022-11-15T18:36:27.556Z,98617.88
2022-11-15T18:38:56.591Z,98610.94
2022-11-15T18:41:25.414Z,98611.56
2022-11-15T18:43:53.016Z,98620.34
2022-11-15T18:46:23.099Z,98610.75
2022-11-15T18:48:53.156Z,98603.59
2022-11-15T18:51:22.521Z,98609.53
2022-11-15T18:53:53.190Z,98610.13
2022-11-15T18:56:22.096Z,98609.53
2022-11-15T18:58:51.437Z,98609.94
2022-11-15T19:01:21.140Z,98611.56
2022-11-15T19:03:50.209Z,98604.03
2022-11-15T19:06:22.414Z,98603.22
2022-11-15T19:08:51.322Z,98599.13
2022-11-15T19:11:23.898Z,98600.38
2022-11-15T19:13:54.415Z,98597.69
2022-11-15T19:16:21.996Z,98596.66
2022-11-15T19:18:53.295Z,98592.19
2022-11-15T19:21:22.718Z,98591.19
2022-11-15T19:23:50.997Z,98588.53
2022-11-15T19:26:18.693Z,98591.38
2022-11-15T19:28:46.368Z,98588.31
2022-11-15T19:31:16.182Z,98577.53
2022-11-15T19:33:45.954Z,98570.41
2022-11-15T19:36:16.596Z,98573.03
2022-11-15T19:38:46.018Z,98568.13
2022-11-15T19:41:16.665Z,98566.91
2022-11-15T19:43:44.931Z,98564.28
2022-11-15T19:46:13.333Z,98568.53
2022-11-15T19:48:41.272Z,98557.34
2022-11-15T19:51:11.451Z,98566.50
2022-11-15T19:53:39.589Z,98556.72
2022-11-15T19:56:11.983Z,98553.66
2022-11-15T19:58:39.999Z,98560.19
2022-11-15T20:01:09.604Z,98551.63
2022-11-15T20:03:37.632Z,98555.69
2022-11-15T20:06:07.988Z,98552.22
2022-11-15T20:08:36.419Z,98539.16
2022-11-15T20:11:05.743Z,98530.78
2022-11-15T20:13:35.034Z,98532.41
2022-11-15T20:16:02.762Z,98540.81
2022-11-15T20:18:31.671Z,98542.03
2022-11-15T20:20:59.949Z,98542.47
2022-11-15T20:23:27.969Z,98540.22
2022-11-15T20:25:56.759Z,98534.72
2022-11-15T20:28:26.232Z,98533.69
2022-11-15T20:30:57.114Z,98538.97
2022-11-15T20:33:25.492Z,98535.72
2022-11-15T20:35:54.195Z,98536.75
2022-11-15T20:38:22.153Z,98528.41
2022-11-15T20:40:56.046Z,98529.44
2022-11-15T20:43:27.115Z,98514.31
2022-11-15T20:45:56.783Z,98517.78
2022-11-15T20:48:24.713Z,98515.16
2022-11-15T20:50:52.651Z,98515.16
2022-11-15T20:53:21.511Z,98515.56
2022-11-15T20:55:50.973Z,98508.44
2022-11-15T20:58:19.392Z,98514.94
2022-11-15T21:00:47.380Z,98507.00
2022-11-15T21:03:16.518Z,98509.47
2022-11-15T21:05:45.735Z,98509.03
2022-11-15T21:08:14.022Z,98513.50
2022-11-15T21:10:59.878Z,98512.09
2022-11-15T21:13:27.698Z,98506.59
2022-11-15T21:15:57.094Z,98495.78
2022-11-15T21:18:26.264Z,98493.13
2022-11-15T21:20:54.471Z,98508.41
2022-11-15T21:23:22.657Z,98504.16
2022-11-15T21:25:51.386Z,98509.84
2022-11-15T21:28:19.690Z,98504.16
2022-11-15T21:30:54.022Z,98503.09
2022-11-15T21:33:23.913Z,98499.63
2022-11-15T21:35:53.585Z,98493.72
2022-11-15T21:38:23.381Z,98491.28
2022-11-15T21:40:51.796Z,98499.03
2022-11-15T21:43:20.010Z,98496.22
2022-11-15T21:45:56.630Z,98493.28
2022-11-15T21:48:24.272Z,98493.09
2022-11-15T21:50:57.936Z,98477.81
2022-11-15T21:53:26.454Z,98482.31
2022-11-15T21:55:54.156Z,98485.63
2022-11-15T21:58:22.965Z,98477.19
2022-11-15T22:01:09.060Z,98471.88
2022-11-15T22:03:37.086Z,98466.22
2022-11-15T22:06:06.704Z,98457.84
2022-11-15T22:08:34.636Z,98458.75
2022-11-15T22:11:02.879Z,98453.09
2022-11-15T22:13:30.482Z,98449.19
2022-11-15T22:15:58.006Z,98446.88
2022-11-15T22:18:26.971Z,98447.66
2022-11-15T22:20:55.870Z,98441.31
2022-11-15T22:23:25.281Z,98439.75
2022-11-15T22:25:53.416Z,98434.94
2022-11-15T22:28:21.629Z,98436.66
2022-11-15T22:30:50.493Z,98431.56
2022-11-15T22:33:19.491Z,98434.28
2022-11-15T22:35:47.769Z,98426.72
2022-11-15T22:38:15.704Z,98435.69
2022-11-15T22:40:46.480Z,98435.94
2022-11-15T22:43:16.020Z,98438.03
2022-11-15T22:45:48.526Z,98443.88
2022-11-15T22:48:16.412Z,98444.69
2022-11-15T22:50:45.278Z,98440.38
2022-11-15T22:53:13.313Z,98436.00
2022-11-15T22:55:41.162Z,98429.72
2022-11-15T22:58:10.864Z,98432.56
2022-11-15T23:00:38.699Z,98435.66
2022-11-15T23:03:06.434Z,98427.94
2022-11-15T23:05:34.078Z,98424.97
2022-11-15T23:08:01.744Z,98421.75
2022-11-15T23:10:46.787Z,98417.88
2022-11-15T23:13:18.349Z,98416.06
2022-11-15T23:16:05.957Z,98417.69
2022-11-15T23:18:37.521Z,98413.91
2022-11-15T23:21:12.043Z,98414.06
2022-11-15T23:23:39.180Z,98403.81
2022-11-15T23:26:07.481Z,98402.16
2022-11-15T23:28:36.796Z,98402.19
2022-11-15T23:31:22.998Z,98402.31
2022-11-15T23:33:59.695Z,98401.63
2022-11-15T23:36:28.459Z,98406.69
2022-11-15T23:38:56.813Z,98400.16
2022-11-15T23:41:25.436Z,98405.28
2022-11-15T23:43:54.425Z,98408.00
2022-11-15T23:46:22.079Z,98402.97
2022-11-15T23:48:49.706Z,98401.81
2022-11-15T23:51:17.361Z,98408.28
2022-11-15T23:53:45.204Z,98403.59
2022-11-15T23:56:14.731Z,98406.69
2022-11-15T23:58:43.065Z,98409.53
